Time;durP1;ratioP1;P1;durP2;ratioP2;P2;SDS_P1;SDS_P2;PMS_P1;PMS_P2;Temp;Humidity;BMP_temperature;BMP_pressure;BME280_temperature;BME280_humidity;BME280_pressure;Samples;Min_cycle;Max_cycle;Signal;HPM_P1;HPM_P2
2022/11/04 00:01:33;;;;;;;;;;;;;;;;;;5037264;28;7194;-65
2022/11/04 00:03:59;;;;;;;;;;;;;;;;;;5038441;28;7190;-65
2022/11/04 00:06:25;;;;;;;;;;;;;;;;;;5021799;28;7197;-65
2022/11/04 00:09:19;;;;;;;;;;;;;;;;;;5038189;28;7122;-66
2022/11/04 00:14:30;;;;;;;;;;;;;;;;;;5038801;28;6805;-66
2022/11/04 00:30:52;;;;;;;;;;;;;;;;;;5038214;28;6798;-66
2022/11/04 00:33:25;;;;;;;;;;;;;;;;;;5037924;28;6998;-66
2022/11/04 00:35:52;;;;;;;;;;;;;;;;;;5037808;28;7418;-66
2022/11/04 00:41:30;;;;;;;;;;;;;;;;;;5037451;28;6953;-66
2022/11/04 00:44:00;;;;;;;;;;;;;;;;;;5037677;28;7409;-66
2022/11/04 00:46:28;;;;;;;;;;;;;;;;;;5037607;28;6957;-66
2022/11/04 00:49:09;;;;;;;;;;;;;;;;;;5019931;28;8583;-66
2022/11/04 00:51:35;;;;;;;;;;;;;;;;;;5037411;28;7410;-66
2022/11/04 00:54:00;;;;;;;;;;;;;;;;;;5038311;28;7035;-66
2022/11/04 00:56:26;;;;;;;;;;;;;;;;;;5037129;28;7151;-66
2022/11/04 00:58:52;;;;;;;;;;;;;;;;;;5037992;28;7313;-66
2022/11/04 01:01:34;;;;;;;;;;;;;;;;;;5037540;28;7213;-66
2022/11/04 01:04:00;;;;;;;;;;;;;;;;;;5037262;28;7393;-65
2022/11/04 01:06:26;;;;;;;;;;;;;;;;;;5036978;28;7009;-65
2022/11/04 01:09:00;;;;;;;;;;;;;;;;;;5037187;28;6935;-66
2022/11/04 01:11:28;;;;;;;;;;;;;;;;;;5037054;28;7202;-66
2022/11/04 01:13:54;;;;;;;;;;;;;;;;;;5036818;28;7266;-66
2022/11/04 01:16:24;;;;;;;;;;;;;;;;;;5037107;28;7449;-66
2022/11/04 01:18:50;;;;;;;;;;;;;;;;;;5037112;28;7140;-66
2022/11/04 01:21:16;;;;;;;;;;;;;;;;;;5037143;28;7106;-66
2022/11/04 01:23:43;;;;;;;;;;;;;;;;;;5034526;28;7159;-66
2022/11/04 01:26:31;;;;;;;;;;;;;;;;;;5036557;28;6929;-66
2022/11/04 01:28:57;;;;;;;;;;;;;;;;;;5036776;28;7198;-66
2022/11/04 01:31:29;;;;;;;;;;;;;;;;;;5036454;28;7908;-66
2022/11/04 01:33:55;;;;;;;;;;;;;;;;;;5036797;28;7390;-66
2022/11/04 01:36:21;;;;;;;;;;;;;;;;;;5036943;28;6941;-66
2022/11/04 01:38:48;;;;;;;;;;;;;;;;;;5036619;28;7130;-66
2022/11/04 01:41:16;;;;;;;;;;;;;;;;;;5036975;28;6961;-66
2022/11/04 01:43:44;;;;;;;;;;;;;;;;;;5036639;28;7192;-65
2022/11/04 01:46:16;;;;;;;;;;;;;;;;;;5036483;28;7092;-65
2022/11/04 01:51:45;;;;;;;;;;;;;;;;;;5037337;28;6936;-66
2022/11/04 01:54:12;;;;;;;;;;;;;;;;;;5037234;28;7142;-66
2022/11/04 01:56:40;;;;;;;;;;;;;;;;;;5018431;28;8478;-66
2022/11/04 01:59:43;;;;;;;;;;;;;;;;;;5036202;28;7206;-66
2022/11/04 02:02:09;;;;;;;;;;;;;;;;;;5036031;28;7409;-66
2022/11/04 02:04:36;;;;;;;;;;;;;;;;;;5036970;28;6924;-66
2022/11/04 02:07:05;;;;;;;;;;;;;;;;;;5036757;28;7087;-66
2022/11/04 02:09:33;;;;;;;;;;;;;;;;;;5037195;28;6940;-66
2022/11/04 02:14:54;;;;;;;;;;;;;;;;;;5036445;28;6797;-66
2022/11/04 02:17:20;;;;;;;;;;;;;;;;;;5035949;28;6960;-66
2022/11/04 02:23:06;;;;;;;;;;;;;;;;;;5035771;28;6781;-66
2022/11/04 02:25:50;;;;;;;;;;;;;;;;;;4996293;28;7324;-66
2022/11/04 02:28:37;;;;;;;;;;;;;;;;;;4996123;28;7337;-66
2022/11/04 02:34:16;;;;;;;;;;;;;;;;;;4996307;28;6919;-66
2022/11/04 02:36:52;;;;;;;;;;;;;;;;;;4996207;28;7110;-66
2022/11/04 02:39:23;;;;;;;;;;;;;;;;;;4996117;28;6940;-66
2022/11/04 02:41:58;;;;;;;;;;;;;;;;;;4996755;28;6956;-66
2022/11/04 02:44:30;;;;;;;;;;;;;;;;;;4996160;28;7447;-66
2022/11/04 02:47:14;;;;;;;;;;;;;;;;;;4996023;28;7352;-66
2022/11/04 02:49:46;;;;;;;;;;;;;;;;;;4996941;28;7050;-66
2022/11/04 02:52:39;;;;;;;;;;;;;;;;;;4995901;28;7281;-66
2022/11/04 02:55:10;;;;;;;;;;;;;;;;;;4994699;28;8583;-66
2022/11/04 02:57:41;;;;;;;;;;;;;;;;;;4995918;28;7044;-66
2022/11/04 03:03:16;;;;;;;;;;;;;;;;;;4995714;28;6903;-66
2022/11/04 03:05:46;;;;;;;;;;;;;;;;;;4995736;28;7082;-66
2022/11/04 03:08:17;;;;;;;;;;;;;;;;;;4994510;28;8709;-66
2022/11/04 03:10:47;;;;;;;;;;;;;;;;;;4995352;28;7045;-66
2022/11/04 03:13:16;;;;;;;;;;;;;;;;;;4995496;28;6942;-66
2022/11/04 03:15:52;;;;;;;;;;;;;;;;;;4995672;28;7116;-66
2022/11/04 03:18:27;;;;;;;;;;;;;;;;;;4996450;28;6958;-66
2022/11/04 03:20:56;;;;;;;;;;;;;;;;;;4995642;28;7258;-65
2022/11/04 03:23:46;;;;;;;;;;;;;;;;;;4997458;28;7193;-65
2022/11/04 03:26:18;;;;;;;;;;;;;;;;;;4995141;28;7039;-65
2022/11/04 03:32:04;;;;;;;;;;;;;;;;;;4995499;28;6930;-65
2022/11/04 03:34:31;;;;;;;;;;;;;;;;;;4995450;28;6928;-66
2022/11/04 03:36:58;;;;;;;;;;;;;;;;;;4994823;28;7247;-66
2022/11/04 03:39:40;;;;;;;;;;;;;;;;;;4995381;28;7186;-65
2022/11/04 03:42:18;;;;;;;;;;;;;;;;;;4995131;28;7270;-65
2022/11/04 03:44:47;;;;;;;;;;;;;;;;;;4994478;28;7364;-65
2022/11/04 03:47:13;;;;;;;;;;;;;;;;;;4995344;28;7403;-65
2022/11/04 03:49:39;;;;;;;;;;;;;;;;;;4995290;28;7043;-65
2022/11/04 03:52:13;;;;;;;;;;;;;;;;;;4995316;28;7399;-65
2022/11/04 03:54:39;;;;;;;;;;;;;;;;;;4994915;28;6811;-65
2022/11/04 03:57:41;;;;;;;;;;;;;;;;;;4995138;28;7172;-65
2022/11/04 04:00:10;;;;;;;;;;;;;;;;;;4994872;28;6989;-65
2022/11/04 04:02:53;;;;;;;;;;;;;;;;;;4995258;28;7093;-65
2022/11/04 04:05:39;;;;;;;;;;;;;;;;;;5004001;28;7052;-65
2022/11/04 04:08:19;;;;;;;;;;;;;;;;;;5014636;28;6872;-65
2022/11/04 04:13:57;;;;;;;;;;;;;;;;;;5014464;28;6686;-65
2022/11/04 04:19:40;;;;;;;;;;;;;;;;;;5014262;28;6687;-65
2022/11/04 04:27:57;;;;;;;;;;;;;;;;;;5054234;28;6795;-65
2022/11/04 04:30:22;;;;;;;;;;;;;;;;;;5054350;28;7264;-65
2022/11/04 04:32:54;;;;;;;;;;;;;;;;;;5054793;28;7161;-65
2022/11/04 04:35:42;;;;;;;;;;;;;;;;;;5054296;28;6804;-65
2022/11/04 04:52:56;;;;;;;;;;;;;;;;;;5057704;28;6698;-65
2022/11/04 04:55:22;;;;;;;;;;;;;;;;;;5057546;28;6951;-65
2022/11/04 04:57:47;;;;;;;;;;;;;;;;;;5056147;28;8431;-65
2022/11/04 05:03:15;;;;;;;;;;;;;;;;;;5057099;28;6696;-66
2022/11/04 05:05:41;;;;;;;;;;;;;;;;;;5057927;28;7127;-65
2022/11/04 05:08:07;;;;;;;;;;;;;;;;;;5057146;28;7157;-65
2022/11/04 05:10:32;;;;;;;;;;;;;;;;;;5057107;28;7240;-65
2022/11/04 05:15:51;;;;;;;;;;;;;;;;;;5057454;28;6985;-65
2022/11/04 05:18:17;;;;;;;;;;;;;;;;;;5057529;28;7290;-65
2022/11/04 05:20:44;;;;;;;;;;;;;;;;;;5056924;28;7349;-65
2022/11/04 05:23:12;;;;;;;;;;;;;;;;;;5056727;28;7142;-65
2022/11/04 05:25:38;;;;;;;;;;;;;;;;;;5056229;28;7182;-65
2022/11/04 05:28:05;;;;;;;;;;;;;;;;;;5057546;28;7113;-65
2022/11/04 05:30:31;;;;;;;;;;;;;;;;;;5056741;28;7228;-65
2022/11/04 05:32:57;;;;;;;;;;;;;;;;;;5056645;28;7257;-65
2022/11/04 05:35:37;;;;;;;;;;;;;;;;;;5056358;28;7068;-65
2022/11/04 05:38:03;;;;;;;;;;;;;;;;;;5056681;28;7421;-65
2022/11/04 05:40:34;;;;;;;;;;;;;;;;;;5056526;28;7165;-65
2022/11/04 05:43:06;;;;;;;;;;;;;;;;;;5038556;28;8578;-65
2022/11/04 05:45:32;;;;;;;;;;;;;;;;;;5056103;28;7202;-65
2022/11/04 05:47:58;;;;;;;;;;;;;;;;;;5056280;28;7134;-65
2022/11/04 05:50:24;;;;;;;;;;;;;;;;;;5056071;28;6925;-65
2022/11/04 05:52:49;;;;;;;;;;;;;;;;;;5056394;28;6935;-65
2022/11/04 05:55:34;;;;;;;;;;;;;;;;;;5056499;28;6937;-65
2022/11/04 05:57:59;;;;;;;;;;;;;;;;;;5056324;28;7207;-65
2022/11/04 06:00:26;;;;;;;;;;;;;;;;;;5056302;28;7268;-65
2022/11/04 06:03:13;;;;;;;;;;;;;;;;;;5056244;28;7041;-65
2022/11/04 06:05:38;;;;;;;;;;;;;;;;;;5056093;28;7001;-65
2022/11/04 06:08:04;;;;;;;;;;;;;;;;;;5055978;28;7220;-65
2022/11/04 06:10:37;;;;;;;;;;;;;;;;;;5056235;28;7031;-65
2022/11/04 06:13:03;;;;;;;;;;;;;;;;;;5056259;28;7341;-65
2022/11/04 06:15:28;;;;;;;;;;;;;;;;;;5055978;28;7354;-65
2022/11/04 06:17:59;;;;;;;;;;;;;;;;;;5056142;28;7195;-65
2022/11/04 06:20:24;;;;;;;;;;;;;;;;;;5055408;28;7216;-65
2022/11/04 06:22:50;;;;;;;;;;;;;;;;;;5055880;28;7003;-65
2022/11/04 06:25:15;;;;;;;;;;;;;;;;;;5053994;28;7177;-65
2022/11/04 06:27:52;;;;;;;;;;;;;;;;;;5055684;28;7053;-65
2022/11/04 06:30:17;;;;;;;;;;;;;;;;;;5055425;28;7040;-65
2022/11/04 06:32:44;;;;;;;;;;;;;;;;;;5055569;28;7040;-65
2022/11/04 06:35:09;;;;;;;;;;;;;;;;;;5055491;28;7189;-65
2022/11/04 06:37:36;;;;;;;;;;;;;;;;;;5056289;28;7149;-65
2022/11/04 06:40:02;;;;;;;;;;;;;;;;;;5055349;28;7201;-66
2022/11/04 06:42:28;;;;;;;;;;;;;;;;;;5055313;28;7346;-66
2022/11/04 06:47:56;;;;;;;;;;;;;;;;;;5052333;28;6683;-66
2022/11/04 06:50:21;;;;;;;;;;;;;;;;;;5046618;28;6995;-66
2022/11/04 06:52:52;;;;;;;;;;;;;;;;;;5055169;28;7081;-66
2022/11/04 06:55:17;;;;;;;;;;;;;;;;;;5054447;28;6984;-66
2022/11/04 06:57:45;;;;;;;;;;;;;;;;;;5055310;28;7151;-66
2022/11/04 07:00:10;;;;;;;;;;;;;;;;;;5053528;28;6998;-66
2022/11/04 07:02:37;;;;;;;;;;;;;;;;;;5054576;28;7005;-66
2022/11/04 07:05:03;;;;;;;;;;;;;;;;;;5053303;28;7230;-66
2022/11/04 07:07:44;;;;;;;;;;;;;;;;;;5035108;28;7027;-66
2022/11/04 07:10:10;;;;;;;;;;;;;;;;;;5034137;28;7206;-65
2022/11/04 07:12:55;;;;;;;;;;;;;;;;;;5034768;28;7025;-65
2022/11/04 07:15:21;;;;;;;;;;;;;;;;;;5034736;28;7699;-65
2022/11/04 07:17:54;;;;;;;;;;;;;;;;;;5034605;28;6943;-65
2022/11/04 07:20:19;;;;;;;;;;;;;;;;;;5041978;28;7184;-65
2022/11/04 07:23:04;;;;;;;;;;;;;;;;;;5054575;28;7155;-65
2022/11/04 07:25:49;;;;;;;;;;;;;;;;;;5053735;28;6986;-66
2022/11/04 07:28:15;;;;;;;;;;;;;;;;;;5054584;28;7000;-65
2022/11/04 07:33:54;;;;;;;;;;;;;;;;;;5054114;28;6971;-65
2022/11/04 07:36:19;;;;;;;;;;;;;;;;;;5054144;28;7401;-65
2022/11/04 07:38:45;;;;;;;;;;;;;;;;;;5054290;28;7032;-65
2022/11/04 07:41:12;;;;;;;;;;;;;;;;;;5054296;28;6959;-65
2022/11/04 07:46:43;;;;;;;;;;;;;;;;;;5053493;28;6706;-65
2022/11/04 07:49:09;;;;;;;;;;;;;;;;;;5043719;28;8943;-66
2022/11/04 07:51:34;;;;;;;;;;;;;;;;;;5053803;28;7180;-66
2022/11/04 07:54:00;;;;;;;;;;;;;;;;;;5036507;28;8662;-66
2022/11/04 07:56:42;;;;;;;;;;;;;;;;;;5054151;28;7037;-66
2022/11/04 07:59:08;;;;;;;;;;;;;;;;;;5054017;28;7927;-65
2022/11/04 08:04:39;;;;;;;;;;;;;;;;;;5054240;28;6866;-65
2022/11/04 08:07:07;;;;;;;;;;;;;;;;;;5054077;28;7206;-65
2022/11/04 08:12:36;;;;;;;;;;;;;;;;;;5054022;28;6934;-65
2022/11/04 08:15:22;;;;;;;;;;;;;;;;;;5054209;28;7149;-65
2022/11/04 08:17:47;;;;;;;;;;;;;;;;;;5054257;28;7234;-65
2022/11/04 08:26:20;;;;;;;;;;;;;;;;;;5055627;28;6699;-65
2022/11/04 08:28:45;;;;;;;;;;;;;;;;;;5057309;28;7197;-65
2022/11/04 08:31:25;;;;;;;;;;;;;;;;;;5057688;28;7352;-65
2022/11/04 08:34:05;;;;;;;;;;;;;;;;;;5056921;28;7031;-65
2022/11/04 08:36:33;;;;;;;;;;;;;;;;;;5057678;28;7059;-66
2022/11/04 08:39:03;;;;;;;;;;;;;;;;;;5057395;28;7169;-66
2022/11/04 08:41:31;;;;;;;;;;;;;;;;;;5057321;28;7293;-66
2022/11/04 08:44:09;;;;;;;;;;;;;;;;;;5057663;28;7357;-66
2022/11/04 08:46:37;;;;;;;;;;;;;;;;;;5057012;28;7178;-66
2022/11/04 08:49:11;;;;;;;;;;;;;;;;;;5057135;28;6918;-66
2022/11/04 08:51:42;;;;;;;;;;;;;;;;;;5057329;28;7393;-66
2022/11/04 08:57:11;;;;;;;;;;;;;;;;;;5057088;28;6690;-66
2022/11/04 08:59:36;;;;;;;;;;;;;;;;;;5056800;28;7183;-66
2022/11/04 09:02:36;;;;;;;;;;;;;;;;;;5057099;28;7166;-66
2022/11/04 09:05:02;;;;;;;;;;;;;;;;;;5056586;28;7205;-66
2022/11/04 09:10:40;;;;;;;;;;;;;;;;;;5056725;28;6707;-66
2022/11/04 09:13:06;;;;;;;;;;;;;;;;;;5056724;28;7234;-66
2022/11/04 09:15:33;;;;;;;;;;;;;;;;;;5056850;28;7167;-66
2022/11/04 09:17:58;;;;;;;;;;;;;;;;;;5056745;28;7102;-66
2022/11/04 09:20:40;;;;;;;;;;;;;;;;;;5056805;28;6882;-66
2022/11/04 09:23:07;;;;;;;;;;;;;;;;;;5053508;28;7142;-66
2022/11/04 09:25:33;;;;;;;;;;;;;;;;;;5034770;28;7049;-66
2022/11/04 09:28:05;;;;;;;;;;;;;;;;;;5036569;28;7057;-66
2022/11/04 09:30:30;;;;;;;;;;;;;;;;;;5037388;28;7045;-66
2022/11/04 09:33:07;;;;;;;;;;;;;;;;;;5035761;28;6868;-66
2022/11/04 09:35:32;;;;;;;;;;;;;;;;;;5036547;28;7396;-65
2022/11/04 09:38:01;;;;;;;;;;;;;;;;;;5036640;28;7392;-65
2022/11/04 09:40:27;;;;;;;;;;;;;;;;;;5036499;28;7405;-65
2022/11/04 09:43:16;;;;;;;;;;;;;;;;;;5036538;28;7172;-65
2022/11/04 09:45:43;;;;;;;;;;;;;;;;;;5036179;28;6909;-65
2022/11/04 09:48:27;;;;;;;;;;;;;;;;;;5036500;28;7026;-65
2022/11/04 09:50:56;;;;;;;;;;;;;;;;;;5035776;28;6958;-65
2022/11/04 09:53:22;;;;;;;;;;;;;;;;;;5036172;28;7498;-65
2022/11/04 09:56:06;;;;;;;;;;;;;;;;;;5036463;28;7093;-65
2022/11/04 09:58:37;;;;;;;;;;;;;;;;;;5036277;28;7236;-65
2022/11/04 10:01:28;;;;;;;;;;;;;;;;;;5035591;28;7026;-65
2022/11/04 10:03:54;;;;;;;;;;;;;;;;;;5035925;28;7183;-65
2022/11/04 10:09:11;;;;;;;;;;;;;;;;;;5035737;28;7060;-65
2022/11/04 10:12:00;;;;;;;;;;;;;;;;;;5035741;28;7429;-66
2022/11/04 10:14:57;;;;;;;;;;;;;;;;;;5035905;28;6831;-65
2022/11/04 10:17:25;;;;;;;;;;;;;;;;;;5035836;28;6978;-65
2022/11/04 10:20:25;;;;;;;;;;;;;;;;;;5035725;28;7390;-65
2022/11/04 10:23:00;;;;;;;;;;;;;;;;;;5035880;28;7125;-65
2022/11/04 10:28:43;;;;;;;;;;;;;;;;;;5035837;28;6939;-65
2022/11/04 10:31:35;;;;;;;;;;;;;;;;;;5035350;28;7079;-65
2022/11/04 10:34:07;;;;;;;;;;;;;;;;;;5035566;28;7162;-65
2022/11/04 10:36:52;;;;;;;;;;;;;;;;;;5035654;28;7367;-65
2022/11/04 10:39:29;;;;;;;;;;;;;;;;;;5035233;28;7223;-65
2022/11/04 10:42:04;;;;;;;;;;;;;;;;;;5035249;28;7241;-65
2022/11/04 10:44:35;;;;;;;;;;;;;;;;;;5034687;28;6993;-65
2022/11/04 10:47:20;;;;;;;;;;;;;;;;;;5035058;28;7154;-65
2022/11/04 10:49:46;;;;;;;;;;;;;;;;;;5053882;28;6908;-65
2022/11/04 10:52:27;;;;;;;;;;;;;;;;;;5055119;28;7177;-65
2022/11/04 10:54:53;;;;;;;;;;;;;;;;;;5051997;28;7290;-65
2022/11/04 10:57:51;;;;;;;;;;;;;;;;;;5034838;28;7917;-65
2022/11/04 11:00:36;;;;;;;;;;;;;;;;;;5034202;28;7453;-65
2022/11/04 11:03:02;;;;;;;;;;;;;;;;;;5035110;28;7150;-65
2022/11/04 11:05:48;;;;;;;;;;;;;;;;;;5034735;28;7058;-65
2022/11/04 11:08:28;;;;;;;;;;;;;;;;;;5034454;28;7233;-65
2022/11/04 11:11:25;;;;;;;;;;;;;;;;;;5034586;28;7038;-65
2022/11/04 11:13:50;;;;;;;;;;;;;;;;;;5034840;28;7178;-65
2022/11/04 11:16:27;;;;;;;;;;;;;;;;;;5034538;28;7053;-66
2022/11/04 11:19:30;;;;;;;;;;;;;;;;;;5034463;28;7076;-66
2022/11/04 11:21:56;;;;;;;;;;;;;;;;;;5032928;28;7687;-65
2022/11/04 11:24:24;;;;;;;;;;;;;;;;;;5034342;28;7490;-66
2022/11/04 11:26:55;;;;;;;;;;;;;;;;;;5034702;28;7263;-66
2022/11/04 11:29:41;;;;;;;;;;;;;;;;;;5034164;28;7428;-66
2022/11/04 11:35:22;;;;;;;;;;;;;;;;;;5030540;28;7559;-65
2022/11/04 11:37:48;;;;;;;;;;;;;;;;;;5034370;28;7214;-65
2022/11/04 11:40:27;;;;;;;;;;;;;;;;;;5034346;28;7185;-66
2022/11/04 11:42:54;;;;;;;;;;;;;;;;;;5034808;28;7163;-65
2022/11/04 11:45:38;;;;;;;;;;;;;;;;;;5034044;28;7932;-65
2022/11/04 11:51:11;;;;;;;;;;;;;;;;;;5034250;28;6952;-65
2022/11/04 11:53:39;;;;;;;;;;;;;;;;;;5034675;28;8773;-65
2022/11/04 11:59:38;;;;;;;;;;;;;;;;;;5058065;28;6758;-66
2022/11/04 12:02:31;;;;;;;;;;;;;;;;;;5058554;28;7174;-65
2022/11/04 12:04:57;;;;;;;;;;;;;;;;;;5058307;28;6975;-65
2022/11/04 12:07:41;;;;;;;;;;;;;;;;;;5057928;28;6935;-65
2022/11/04 12:10:25;;;;;;;;;;;;;;;;;;5058187;28;7107;-65
2022/11/04 12:13:09;;;;;;;;;;;;;;;;;;5058270;28;7171;-65
2022/11/04 12:16:01;;;;;;;;;;;;;;;;;;5057598;28;7156;-65
2022/11/04 12:18:29;;;;;;;;;;;;;;;;;;4977057;28;7495;-65
2022/11/04 12:24:12;;;;;;;;;;;;;;;;;;4977575;28;7051;-65
2022/11/04 12:26:40;;;;;;;;;;;;;;;;;;4977049;28;7198;-65
2022/11/04 12:32:40;;;;;;;;;;;;;;;;;;4976958;28;6961;-65
2022/11/04 12:35:21;;;;;;;;;;;;;;;;;;4977135;28;7142;-65
2022/11/04 12:37:47;;;;;;;;;;;;;;;;;;4976664;28;7154;-65
2022/11/04 12:40:32;;;;;;;;;;;;;;;;;;4976724;28;7397;-65
2022/11/04 12:43:00;;;;;;;;;;;;;;;;;;4976402;28;7135;-65
2022/11/04 12:45:26;;;;;;;;;;;;;;;;;;4976675;28;7047;-65
2022/11/04 12:48:17;;;;;;;;;;;;;;;;;;4976374;28;7148;-65
2022/11/04 12:51:00;;;;;;;;;;;;;;;;;;4968897;28;7894;-65
2022/11/04 12:53:25;;;;;;;;;;;;;;;;;;4976455;28;7603;-65
2022/11/04 12:56:08;;;;;;;;;;;;;;;;;;5021398;28;7113;-65
2022/11/04 12:58:43;;;;;;;;;;;;;;;;;;5017677;28;7390;-65
2022/11/04 13:01:19;;;;;;;;;;;;;;;;;;5030767;28;7621;-65
2022/11/04 13:03:53;;;;;;;;;;;;;;;;;;5037367;28;7173;-65
2022/11/04 13:12:42;;;;;;;;;;;;;;;;;;5036822;28;7042;-65
2022/11/04 13:15:24;;;;;;;;;;;;;;;;;;5036934;28;6926;-65
2022/11/04 13:18:08;;;;;;;;;;;;;;;;;;5037116;28;7399;-65
2022/11/04 13:20:52;;;;;;;;;;;;;;;;;;5037021;28;7207;-65
2022/11/04 13:23:31;;;;;;;;;;;;;;;;;;5037114;28;7167;-66
2022/11/04 13:26:00;;;;;;;;;;;;;;;;;;5050983;28;7154;-66
2022/11/04 13:34:39;;;;;;;;;;;;;;;;;;5056759;28;6690;-65
2022/11/04 13:40:20;;;;;;;;;;;;;;;;;;5056559;28;6810;-65
2022/11/04 13:46:11;;;;;;;;;;;;;;;;;;5056295;28;6721;-65
2022/11/04 13:51:38;;;;;;;;;;;;;;;;;;5056791;28;6933;-65
2022/11/04 13:54:06;;;;;;;;;;;;;;;;;;5056552;28;7057;-65
2022/11/04 13:56:37;;;;;;;;;;;;;;;;;;5055920;28;7393;-65
2022/11/04 13:59:05;;;;;;;;;;;;;;;;;;5055951;28;7273;-65
2022/11/04 14:01:51;;;;;;;;;;;;;;;;;;5056427;28;7135;-66
2022/11/04 14:04:23;;;;;;;;;;;;;;;;;;5056119;28;7409;-65
2022/11/04 14:06:49;;;;;;;;;;;;;;;;;;5056331;28;7246;-65
2022/11/04 14:09:34;;;;;;;;;;;;;;;;;;5055669;28;7203;-65
2022/11/04 14:12:18;;;;;;;;;;;;;;;;;;5056031;28;7144;-65
2022/11/04 14:15:06;;;;;;;;;;;;;;;;;;5056134;28;7403;-65
2022/11/04 14:17:32;;;;;;;;;;;;;;;;;;5056033;28;7220;-65
2022/11/04 14:20:10;;;;;;;;;;;;;;;;;;5069646;22;7023;-84
2022/11/04 14:22:42;;;;;;;;;;;;;;;;;;5037871;28;6935;-85
2022/11/04 14:25:26;;;;;;;;;;;;;;;;;;5038149;28;7010;-85
2022/11/04 14:27:55;;;;;;;;;;;;;;;;;;5023576;28;8426;-86
2022/11/04 14:30:28;;;;;;;;;;;;;;;;;;5021436;28;8323;-86
2022/11/04 14:33:15;;;;;;;;;;;;;;;;;;5019668;28;7074;-85
2022/11/04 14:35:40;;;;;;;;;;;;;;;;;;5023777;28;7123;-87
2022/11/04 14:38:19;;;;;;;;;;;;;;;;;;5035531;28;7025;-85
2022/11/04 14:40:52;;;;;;;;;;;;;;;;;;5034763;28;7034;-86
2022/11/04 14:43:40;;;;;;;;;;;;;;;;;;5018416;28;6852;-87
2022/11/04 14:46:06;;;;;;;;;;;;;;;;;;5018148;28;6952;-84
2022/11/04 14:48:33;;;;;;;;;;;;;;;;;;5017911;28;7035;-86
2022/11/04 14:50:59;;;;;;;;;;;;;;;;;;5019454;28;7245;-86
2022/11/04 14:53:30;;;;;;;;;;;;;;;;;;5043849;28;7031;-85
2022/11/04 14:56:13;;;;;;;;;;;;;;;;;;5044490;28;7128;-84
2022/11/04 14:58:50;;;;;;;;;;;;;;;;;;5046037;28;7143;-84
2022/11/04 15:01:16;;;;;;;;;;;;;;;;;;5028727;28;7067;-85
2022/11/04 15:03:45;;;;;;;;;;;;;;;;;;5035432;28;7143;-86
2022/11/04 15:06:11;;;;;;;;;;;;;;;;;;5017685;28;7121;-86
2022/11/04 15:08:43;;;;;;;;;;;;;;;;;;5017368;28;7523;-86
2022/11/04 15:11:08;;;;;;;;;;;;;;;;;;5033847;28;7052;-87
2022/11/04 15:13:46;;;;;;;;;;;;;;;;;;5034615;28;8279;-88
2022/11/04 15:16:18;;;;;;;;;;;;;;;;;;5016917;28;7049;-80
2022/11/04 15:18:45;;;;;;;;;;;;;;;;;;5017418;28;7020;-87
2022/11/04 15:21:11;;;;;;;;;;;;;;;;;;5017496;28;8390;-86
2022/11/04 15:23:41;;;;;;;;;;;;;;;;;;5034528;28;7003;-86
2022/11/04 15:26:19;;;;;;;;;;;;;;;;;;5017678;28;7006;-87
2022/11/04 15:28:47;;;;;;;;;;;;;;;;;;5034603;28;7048;-87
2022/11/04 15:31:14;;;;;;;;;;;;;;;;;;5016693;28;8352;-87
2022/11/04 15:33:45;;;;;;;;;;;;;;;;;;5033384;28;6991;-86
2022/11/04 15:36:16;;;;;;;;;;;;;;;;;;5016639;28;7726;-87
2022/11/04 15:38:46;;;;;;;;;;;;;;;;;;5033765;28;8411;-87
2022/11/04 15:43:58;;;;;;;;;;;;;;;;;;5034845;28;6947;-87
2022/11/04 15:46:28;;;;;;;;;;;;;;;;;;5016840;28;8300;-87
2022/11/04 15:49:00;;;;;;;;;;;;;;;;;;5016897;28;7393;-88
2022/11/04 15:51:29;;;;;;;;;;;;;;;;;;5016757;28;7130;-87
2022/11/04 15:53:58;;;;;;;;;;;;;;;;;;5017461;28;7193;-87
2022/11/04 15:56:33;;;;;;;;;;;;;;;;;;5016979;28;7170;-86
2022/11/04 15:58:59;;;;;;;;;;;;;;;;;;5034105;28;8727;-87
2022/11/04 16:01:27;;;;;;;;;;;;;;;;;;5017239;28;8265;-89
2022/11/04 16:04:05;;;;;;;;;;;;;;;;;;5016889;28;7049;-89
2022/11/04 16:06:38;;;;;;;;;;;;;;;;;;5017030;28;8471;-88
2022/11/04 16:09:26;;;;;;;;;;;;;;;;;;5016443;28;8468;-88
2022/11/04 16:12:06;;;;;;;;;;;;;;;;;;5016864;28;7054;-88
2022/11/04 16:14:32;;;;;;;;;;;;;;;;;;5017182;28;8410;-89
2022/11/04 16:16:58;;;;;;;;;;;;;;;;;;5032708;28;8402;-88
2022/11/04 16:19:26;;;;;;;;;;;;;;;;;;5015497;28;8472;-88
2022/11/04 16:22:04;;;;;;;;;;;;;;;;;;5016137;28;8643;-89
2022/11/04 16:24:32;;;;;;;;;;;;;;;;;;5032999;28;8596;-88
2022/11/04 16:26:58;;;;;;;;;;;;;;;;;;5015859;28;8475;-89
2022/11/04 16:29:26;;;;;;;;;;;;;;;;;;5016747;28;7031;-88
2022/11/04 16:32:10;;;;;;;;;;;;;;;;;;5016514;28;8783;-87
2022/11/04 16:34:37;;;;;;;;;;;;;;;;;;5016993;28;8302;-88
2022/11/04 16:37:03;;;;;;;;;;;;;;;;;;5014076;28;9146;-86
2022/11/04 16:39:29;;;;;;;;;;;;;;;;;;5031230;28;8407;-88
2022/11/04 16:41:56;;;;;;;;;;;;;;;;;;5018260;28;8609;-89
2022/11/04 16:44:23;;;;;;;;;;;;;;;;;;5032415;28;7186;-88
2022/11/04 16:46:49;;;;;;;;;;;;;;;;;;5036568;28;7043;-87
2022/11/04 16:49:17;;;;;;;;;;;;;;;;;;5036315;28;7144;-87
2022/11/04 16:51:43;;;;;;;;;;;;;;;;;;5036230;28;8306;-87
2022/11/04 16:54:09;;;;;;;;;;;;;;;;;;5033372;28;7018;-87
2022/11/04 16:56:35;;;;;;;;;;;;;;;;;;5038239;28;8429;-87
2022/11/04 16:59:00;;;;;;;;;;;;;;;;;;5027866;28;8207;-86
2022/11/04 17:01:26;;;;;;;;;;;;;;;;;;5021370;28;7344;-90
2022/11/04 17:03:51;;;;;;;;;;;;;;;;;;4999684;28;7109;-87
2022/11/04 17:06:18;;;;;;;;;;;;;;;;;;5003994;28;8722;-88
2022/11/04 17:08:44;;;;;;;;;;;;;;;;;;4999918;28;7430;-87
2022/11/04 17:11:10;;;;;;;;;;;;;;;;;;5022223;28;8475;-87
2022/11/04 17:13:36;;;;;;;;;;;;;;;;;;5038379;28;8702;-88
2022/11/04 17:16:03;;;;;;;;;;;;;;;;;;5039278;28;8419;-88
2022/11/04 17:18:32;;;;;;;;;;;;;;;;;;5038732;28;7032;-88
2022/11/04 17:20:58;;;;;;;;;;;;;;;;;;5039218;28;8677;-88
2022/11/04 17:23:23;;;;;;;;;;;;;;;;;;5038710;28;8736;-87
2022/11/04 17:25:49;;;;;;;;;;;;;;;;;;5055434;28;8360;-85
2022/11/04 17:28:14;;;;;;;;;;;;;;;;;;5055971;28;8759;-87
2022/11/04 17:30:44;;;;;;;;;;;;;;;;;;5055694;28;8316;-86
2022/11/04 17:33:17;;;;;;;;;;;;;;;;;;5023581;28;7025;-87
2022/11/04 17:35:47;;;;;;;;;;;;;;;;;;5033395;28;6875;-87
2022/11/04 17:38:13;;;;;;;;;;;;;;;;;;5029580;28;8446;-88
2022/11/04 17:46:43;;;;;;;;;;;;;;;;;;5016708;28;6796;-89
2022/11/04 17:49:01;;;;;;;;;;;;;;;;;;5015025;28;7278;-88
2022/11/04 17:51:27;;;;;;;;;;;;;;;;;;4999249;28;7180;-89
2022/11/04 17:53:52;;;;;;;;;;;;;;;;;;4999012;28;8371;-88
2022/11/04 17:56:19;;;;;;;;;;;;;;;;;;4999417;28;7105;-88
2022/11/04 17:58:45;;;;;;;;;;;;;;;;;;4999853;28;6989;-89
2022/11/04 18:01:13;;;;;;;;;;;;;;;;;;4999548;28;8592;-89
2022/11/04 18:03:39;;;;;;;;;;;;;;;;;;4998694;28;8611;-88
2022/11/04 18:06:04;;;;;;;;;;;;;;;;;;4998739;28;7396;-88
2022/11/04 18:08:30;;;;;;;;;;;;;;;;;;4999071;28;7013;-89
2022/11/04 18:11:01;;;;;;;;;;;;;;;;;;4998796;28;8649;-88
2022/11/04 18:13:27;;;;;;;;;;;;;;;;;;4998928;28;8599;-90
2022/11/04 18:15:52;;;;;;;;;;;;;;;;;;4998587;28;8764;-89
2022/11/04 18:18:18;;;;;;;;;;;;;;;;;;4997218;28;8393;-88
2022/11/04 18:20:43;;;;;;;;;;;;;;;;;;4997349;28;7368;-89
2022/11/04 18:23:09;;;;;;;;;;;;;;;;;;4998951;28;8637;-89
2022/11/04 18:25:37;;;;;;;;;;;;;;;;;;4998604;28;6989;-88
2022/11/04 18:28:02;;;;;;;;;;;;;;;;;;4998085;28;8360;-88
2022/11/04 18:30:28;;;;;;;;;;;;;;;;;;4997947;28;8285;-88
2022/11/04 18:32:53;;;;;;;;;;;;;;;;;;4998865;28;8406;-89
2022/11/04 18:35:19;;;;;;;;;;;;;;;;;;4998554;28;8457;-90
2022/11/04 18:37:44;;;;;;;;;;;;;;;;;;4998503;28;7229;-90
2022/11/04 18:40:10;;;;;;;;;;;;;;;;;;4998449;28;6940;-89
2022/11/04 18:42:35;;;;;;;;;;;;;;;;;;4998405;28;8344;-88
2022/11/04 18:45:01;;;;;;;;;;;;;;;;;;4998508;28;7034;-89
2022/11/04 18:47:27;;;;;;;;;;;;;;;;;;4998038;28;8303;-89
2022/11/04 18:49:52;;;;;;;;;;;;;;;;;;4997138;28;7016;-88
2022/11/04 18:52:17;;;;;;;;;;;;;;;;;;4997820;28;7029;-89
2022/11/04 18:54:43;;;;;;;;;;;;;;;;;;4998112;28;8407;-89
2022/11/04 18:57:10;;;;;;;;;;;;;;;;;;4998254;28;8411;-89
2022/11/04 18:59:36;;;;;;;;;;;;;;;;;;4998160;28;6854;-87
2022/11/04 19:02:02;;;;;;;;;;;;;;;;;;4998103;28;7384;-89
2022/11/04 19:04:27;;;;;;;;;;;;;;;;;;4997968;28;7086;-89
2022/11/04 19:06:53;;;;;;;;;;;;;;;;;;4997048;28;8262;-89
2022/11/04 19:09:19;;;;;;;;;;;;;;;;;;4998044;28;7020;-89
2022/11/04 19:11:45;;;;;;;;;;;;;;;;;;4998006;28;7232;-88
2022/11/04 19:14:15;;;;;;;;;;;;;;;;;;4997971;28;8688;-88
2022/11/04 19:16:41;;;;;;;;;;;;;;;;;;4997696;28;6958;-89
2022/11/04 19:19:08;;;;;;;;;;;;;;;;;;4997509;28;6910;-88
2022/11/04 19:21:34;;;;;;;;;;;;;;;;;;4997523;28;7034;-90
2022/11/04 19:24:01;;;;;;;;;;;;;;;;;;4998538;28;7257;-89
2022/11/04 19:26:28;;;;;;;;;;;;;;;;;;4997520;28;7343;-88
2022/11/04 19:28:55;;;;;;;;;;;;;;;;;;4999367;28;7298;-89
2022/11/04 19:31:24;;;;;;;;;;;;;;;;;;4997927;28;7417;-87
2022/11/04 19:33:50;;;;;;;;;;;;;;;;;;4997534;28;8493;-88
2022/11/04 19:36:17;;;;;;;;;;;;;;;;;;4997325;28;8937;-88
2022/11/04 19:38:43;;;;;;;;;;;;;;;;;;4997375;28;7088;-89
2022/11/04 19:43:57;;;;;;;;;;;;;;;;;;5015423;28;6794;-90
2022/11/04 19:46:23;;;;;;;;;;;;;;;;;;4996979;28;8421;-89
2022/11/04 19:48:50;;;;;;;;;;;;;;;;;;4997374;28;8726;-90
2022/11/04 19:51:15;;;;;;;;;;;;;;;;;;4997526;28;7045;-88
2022/11/04 19:53:41;;;;;;;;;;;;;;;;;;4997262;28;8377;-89
2022/11/04 19:56:06;;;;;;;;;;;;;;;;;;4997164;28;8414;-89
2022/11/04 19:58:33;;;;;;;;;;;;;;;;;;4997841;28;7228;-90
2022/11/04 20:01:05;;;;;;;;;;;;;;;;;;4997363;28;8308;-89
2022/11/04 20:03:30;;;;;;;;;;;;;;;;;;4997222;28;8513;-89
2022/11/04 20:05:56;;;;;;;;;;;;;;;;;;4996633;28;8565;-89